Last 24 Hours

Canyon Lodge - 8,343ft

5 Minute Data | America/Los_Angeles
as of 8/30/26 11:10 PM PDT
Date & Time Temp (°F) RH (%) Dew Pt (°F) Wet Bulb (°F) Wind Dir (°) Wind Spd (mph) Wind Gust (mph) Wind Gst Dir (°)
8/30/26 - 2310 59.1 35 31.4 46.0 SSW | 206 1.1 4.5 S | 183
8/30/26 - 2305 59.7 35 31.8 46.4 SSW | 212 2.0 5.8 SSE | 148
8/30/26 - 2300 59.5 34 30.8 46.0 SSW | 212 1.9 6.1 W | 263
8/30/26 - 2255 58.5 34 30.6 45.5 SSW | 206 0.5 2.9 SSW | 204
8/30/26 - 2250 58.8 34 30.6 45.6 WSW | 245 0.8 4.6 SW | 233
8/30/26 - 2245 58.6 34 30.6 45.6 SSW | 201 0.6 4.0 S | 178
8/30/26 - 2240 57.9 34 29.7 45.0 S | 183 1.0 4.5 S | 187
8/30/26 - 2235 58.0 34 29.6 44.9 SSW | 202 0.3 2.4 SSW | 195
8/30/26 - 2230 57.7 34 29.8 44.9 S | 190 0.8 4.8 S | 191
8/30/26 - 2225 57.9 34 30.1 45.1 S | 172 0.6 6.3 SSE | 159
8/30/26 - 2220 59.0 35 31.2 45.9 SW | 232 0.3 3.2 W | 280
8/30/26 - 2215 59.6 34 31.3 46.2 SW | 216 2.2 9.5 SW | 230
8/30/26 - 2210 59.7 33 30.4 46.0 SW | 214 2.6 5.8 SSE | 159
8/30/26 - 2205 59.8 33 30.8 46.1 SSW | 212 1.9 5.0 SSW | 210
8/30/26 - 2200 59.8 34 31.6 46.4 SSW | 208 1.8 6.8 WSW | 251
8/30/26 - 2155 60.3 33 31.0 46.4 SSW | 196 3.1 10.2 S | 187
8/30/26 - 2150 60.4 32 30.1 46.2 SSW | 203 4.8 10.6 S | 172
8/30/26 - 2145 60.3 32 30.3 46.2 S | 177 3.3 8.0 S | 171
8/30/26 - 2140 60.3 31 29.8 46.0 SW | 221 3.0 8.4 S | 177
8/30/26 - 2135 60.5 31 29.9 46.1 SW | 223 3.4 8.3 WSW | 245
8/30/26 - 2130 60.8 31 30.1 46.3 SSW | 195 4.7 14.3 SSW | 207
8/30/26 - 2125 60.4 32 30.1 46.2 S | 185 2.4 7.6 S | 178
8/30/26 - 2120 60.5 32 30.2 46.2 S | 179 3.1 10.1 SSE | 160
8/30/26 - 2115 60.5 32 30.2 46.2 SSW | 194 2.0 6.6 SSE | 164
8/30/26 - 2110 60.2 32 29.9 46.0 S | 189 2.3 9.1 S | 184
8/30/26 - 2105 59.9 32 29.7 45.8 S | 169 2.7 7.3 S | 175
8/30/26 - 2100 60.0 32 29.8 45.9 S | 187 4.2 11.0 S | 186
8/30/26 - 2055 59.9 32 29.7 45.8 S | 188 3.7 10.3 S | 174
8/30/26 - 2050 59.8 32 29.6 45.8 S | 186 2.4 7.4 S | 187
8/30/26 - 2045 59.8 32 29.6 45.8 S | 183 2.6 8.8 S | 187
8/30/26 - 2040 59.9 32 29.7 45.8 SSW | 195 2.5 7.7 WSW | 256
8/30/26 - 2035 59.8 32 29.6 45.8 SSW | 203 1.5 6.6 S | 177
8/30/26 - 2030 59.7 32 29.5 45.7 SSW | 192 1.9 7.9 SSE | 150
8/30/26 - 2025 59.1 31 28.6 45.1 SSE | 148 0.8 5.5 SSE | 152
8/30/26 - 2020 59.5 31 29.0 45.4 S | 174 1.4 4.5 SSE | 164
8/30/26 - 2015 59.6 31 29.2 45.5 S | 169 2.1 6.0 SSW | 201
8/30/26 - 2010 59.5 31 29.0 45.4 S | 191 0.5 4.1 SSE | 159
8/30/26 - 2005 59.6 32 29.5 45.6 S | 181 1.0 6.5 SSE | 166
8/30/26 - 2000 59.6 32 29.5 45.6 S | 170 1.5 5.2 SSW | 194
8/30/26 - 1955 59.5 32 29.4 45.5 S | 173 1.2 6.3 SSW | 210
8/30/26 - 1950 59.7 32 29.9 45.8 SSE | 163 1.8 6.0 W | 268
8/30/26 - 1945 59.8 33 30.8 46.1 SSW | 201 2.2 8.7 S | 180
8/30/26 - 1940 60.2 34 31.5 46.5 SSW | 211 0.7 4.8 SSE | 165
8/30/26 - 1935 60.3 34 32.1 46.8 SW | 221 1.5 4.6 SSE | 159
8/30/26 - 1930 60.5 34 32.2 46.9 SSW | 206 2.1 6.4 S | 181
8/30/26 - 1925 60.3 34 31.6 46.6 S | 190 2.0 7.3 SSW | 192
8/30/26 - 1920 60.2 33 30.9 46.3 SSW | 197 0.4 3.2 SW | 234
8/30/26 - 1915 60.3 33 31.3 46.5 SSW | 201 3.0 7.0 SSW | 206
8/30/26 - 1910 60.5 33 31.4 46.6 SSE | 158 1.7 7.5 SE | 146
8/30/26 - 1905 59.9 33 30.9 46.2 SSE | 148 1.4 5.0 ESE | 119
8/30/26 - 1900 60.2 33 31.2 46.4 S | 178 3.9 10.4 S | 171
8/30/26 - 1855 60.5 34 31.7 46.8 SW | 220 2.5 9.0 SW | 217
8/30/26 - 1850 61.0 34 32.6 47.2 SSW | 201 3.8 9.9 SSW | 192
8/30/26 - 1845 60.6 34 31.9 46.8 S | 191 2.8 11.5 S | 180
8/30/26 - 1840 60.9 33 31.7 46.9 SSW | 196 2.8 8.6 S | 183
8/30/26 - 1835 61.0 33 31.4 46.8 SSW | 198 3.3 9.6 WSW | 240
8/30/26 - 1830 61.1 33 31.5 46.9 SSW | 197 2.8 12.4 SSW | 202
8/30/26 - 1825 61.4 33 32.4 47.3 SW | 221 3.1 13.8 WSW | 253
8/30/26 - 1820 61.7 32 31.9 47.3 S | 178 2.2 10.3 SSW | 201
8/30/26 - 1815 61.8 32 31.8 47.3 SSW | 202 3.0 6.9 WSW | 253
8/30/26 - 1810 62.2 32 32.2 47.6 SSW | 196 3.2 11.1 SSW | 204
8/30/26 - 1805 62.5 33 32.7 47.9 SSW | 193 2.5 8.3 S | 182
8/30/26 - 1800 62.8 33 33.2 48.2 SSW | 212 3.5 10.0 SSW | 194
8/30/26 - 1755 63.3 34 34.3 48.8 S | 183 2.8 10.6 SSE | 168
8/30/26 - 1750 63.2 34 34.2 48.7 SSW | 193 4.4 10.8 SSW | 194
8/30/26 - 1745 63.6 33 34.1 48.8 SSW | 195 3.8 10.1 SW | 223
8/30/26 - 1740 63.7 34 34.9 49.1 SW | 234 4.8 12.3 SSW | 208
8/30/26 - 1735 64.2 35 36.2 49.8 SW | 228 4.2 10.1 SW | 227
8/30/26 - 1730 64.5 34 35.6 49.7 SW | 227 3.0 10.6 SW | 228
8/30/26 - 1725 64.5 33 34.9 49.4 SSW | 202 4.2 11.5 SW | 232
8/30/26 - 1720 64.4 32 34.2 49.2 SW | 226 6.7 12.6 SW | 232
8/30/26 - 1715 65.0 33 34.9 49.6 SW | 214 2.3 7.1 SSW | 212
8/30/26 - 1710 64.5 33 34.5 49.3 SSW | 199 3.8 10.0 WSW | 245
8/30/26 - 1705 64.4 33 34.7 49.3 SW | 219 4.3 10.5 W | 264
8/30/26 - 1700 64.0 33 34.6 49.1 SW | 235 6.2 16.3 WSW | 255
8/30/26 - 1655 64.3 34 35.5 49.6 SW | 229 5.4 12.5 WSW | 248
8/30/26 - 1650 64.6 35 36.2 50.0 SW | 234 4.9 16.3 S | 177
8/30/26 - 1645 64.8 33 35.4 49.7 SW | 228 6.3 13.1 W | 267
8/30/26 - 1640 65.4 34 36.6 50.4 S | 179 5.6 13.4 SSW | 192
8/30/26 - 1635 64.9 33 35.0 49.6 SSW | 194 6.1 14.2 S | 185
8/30/26 - 1630 65.5 33 35.9 50.2 SW | 214 3.6 12.9 S | 185
8/30/26 - 1625 65.2 34 36.0 50.1 SSW | 200 6.0 15.9 S | 180
8/30/26 - 1620 65.7 35 37.5 50.8 SSW | 198 4.8 10.5 SSW | 199
8/30/26 - 1615 65.2 35 36.7 50.4 WSW | 247 6.0 15.8 WSW | 245
8/30/26 - 1610 67.0 33 37.0 51.1 SSW | 209 2.9 12.4 W | 262
8/30/26 - 1605 65.9 33 36.0 50.4 S | 187 6.2 11.8 SW | 219
8/30/26 - 1600 67.0 33 37.0 51.1 S | 179 5.7 14.7 S | 184
8/30/26 - 1555 66.2 33 36.4 50.6 SSW | 202 5.2 14.9 S | 170
8/30/26 - 1550 66.6 34 37.1 51.0 SSW | 211 5.6 18.2 SSE | 166
8/30/26 - 1545 67.1 35 38.3 51.7 SSW | 192 4.4 13.0 S | 172
8/30/26 - 1540 67.2 36 39.1 52.0 SSW | 205 3.4 12.0 S | 169
8/30/26 - 1535 66.4 35 38.0 51.3 SSW | 195 5.0 9.5 S | 178
8/30/26 - 1530 66.0 34 36.7 50.7 S | 173 7.9 14.8 S | 185
8/30/26 - 1525 66.0 34 36.7 50.7 S | 186 6.4 17.4 S | 181
8/30/26 - 1520 65.8 34 36.7 50.6 SSW | 196 7.0 18.7 SSW | 205
8/30/26 - 1515 66.4 34 37.3 51.0 S | 187 6.8 18.5 S | 177
8/30/26 - 1510 67.0 34 38.1 51.5 S | 191 4.8 14.6 S | 186
8/30/26 - 1505 67.2 35 38.8 51.9 SW | 229 2.8 9.4 WSW | 241
8/30/26 - 1500 67.3 36 39.3 52.2 S | 186 4.3 9.6 SSW | 192
8/30/26 - 1455 66.4 35 38.1 51.3 SSW | 192 6.9 15.2 S | 191
8/30/26 - 1450 66.7 37 39.4 52.0 SW | 224 4.3 12.4 SW | 232
8/30/26 - 1445 67.0 36 39.4 52.1 SW | 217 3.5 11.6 SSW | 198
8/30/26 - 1440 67.3 35 39.1 52.1 S | 186 7.1 18.2 SE | 145
8/30/26 - 1435 67.5 36 39.9 52.5 SSW | 200 4.2 13.4 S | 185
8/30/26 - 1430 67.0 36 39.5 52.1 SW | 214 4.7 10.8 WSW | 254
8/30/26 - 1425 68.1 36 40.0 52.7 S | 176 4.3 12.2 S | 185
8/30/26 - 1420 66.3 35 37.8 51.2 S | 181 7.7 14.4 SSW | 195
8/30/26 - 1415 68.0 35 39.1 52.3 SSW | 194 5.6 17.2 S | 187
8/30/26 - 1410 67.8 35 39.3 52.3 SSW | 193 5.1 11.2 SSW | 207
8/30/26 - 1405 67.3 35 39.0 52.0 SSW | 211 2.8 13.2 SSW | 201
8/30/26 - 1400 66.8 35 38.6 51.7 SW | 227 3.8 10.7 SSW | 192
8/30/26 - 1355 67.1 35 38.8 51.9 SW | 226 3.6 12.0 SSW | 194
8/30/26 - 1350 67.7 36 39.6 52.4 SW | 216 3.2 10.1 S | 188
8/30/26 - 1345 67.2 36 39.7 52.3 S | 175 4.2 11.5 S | 171
8/30/26 - 1340 67.4 36 39.4 52.3 SSW | 198 3.8 10.0 SSW | 199
8/30/26 - 1335 67.3 36 39.2 52.1 SSW | 208 4.2 13.1 SSW | 193
8/30/26 - 1330 67.8 36 39.8 52.6 SSW | 197 3.7 9.3 S | 174
8/30/26 - 1325 67.7 37 40.2 52.6 S | 190 4.1 10.4 SW | 220
8/30/26 - 1320 67.7 37 40.6 52.8 SSW | 208 2.5 8.9 S | 182
8/30/26 - 1315 67.4 37 40.1 52.5 S | 172 4.1 13.4 SSE | 162
8/30/26 - 1310 68.6 37 41.2 53.4 SSW | 193 2.3 6.9 SSW | 195
8/30/26 - 1305 67.8 37 40.7 52.9 W | 262 1.5 6.5 S | 170
8/30/26 - 1300 67.0 37 40.1 52.4 WNW | 295 3.2 13.7 NNW | 335
8/30/26 - 1255 66.3 38 40.1 52.2 NNW | 346 3.6 7.7 NNW | 347
8/30/26 - 1250 65.3 39 39.7 51.6 NW | 326 5.0 9.8 NNE | 32
8/30/26 - 1245 65.2 39 39.6 51.6 WNW | 294 4.0 12.0 NNW | 345
8/30/26 - 1240 66.5 39 40.6 52.5 NW | 320 1.1 5.3 NNW | 342
8/30/26 - 1235 67.1 39 41.4 53.0 WNW | 283 1.4 6.3 NW | 313
8/30/26 - 1230 65.6 39 40.1 51.9 ENE | 68 2.2 8.3 SSW | 200
8/30/26 - 1225 65.6 40 40.3 52.0 SSW | 202 3.2 9.2 SW | 228
8/30/26 - 1220 65.9 40 40.7 52.3 SSW | 207 2.9 12.2 SW | 216
8/30/26 - 1215 65.7 39 40.1 51.9 SSW | 198 1.9 5.5 SSW | 205
8/30/26 - 1210 65.1 39 39.8 51.6 SW | 231 4.2 11.2 SW | 230
8/30/26 - 1205 66.9 38 40.6 52.6 S | 169 1.7 6.8 SSW | 208
8/30/26 - 1200 65.2 38 38.9 51.3 W | 264 1.3 4.6 NW | 306
8/30/26 - 1155 64.0 37 37.5 50.3 N | 5 2.4 7.3 NNE | 31
8/30/26 - 1150 64.8 38 38.9 51.1 SE | 135 1.0 3.3 NNE | 17
8/30/26 - 1145 64.6 39 39.3 51.2 SE | 126 2.1 5.6 SE | 139
8/30/26 - 1140 66.2 39 40.6 52.3 E | 98 1.3 6.7 ESE | 113
8/30/26 - 1135 65.2 39 40.0 51.7 S | 189 3.0 8.4 SE | 134
8/30/26 - 1130 64.9 39 39.2 51.2 SE | 126 1.5 5.4 ESE | 114
8/30/26 - 1125 64.9 38 38.9 51.2 ESE | 105 1.9 7.2 E | 79
8/30/26 - 1120 64.8 38 38.6 51.0 NNE | 28 0.4 2.2 N | 7
8/30/26 - 1115 63.8 38 37.6 50.2 NE | 35 2.2 5.9 ENE | 76
8/30/26 - 1110 65.4 39 39.9 51.8 SE | 137 1.2 4.8 S | 182
8/30/26 - 1105 63.7 39 38.3 50.4 NNE | 14 0.9 4.9 N | 351
8/30/26 - 1100 63.8 39 38.2 50.5 NNE | 20 0.6 5.3 NNE | 17
8/30/26 - 1055 64.0 40 39.0 50.9 SE | 126 2.7 8.0 SSE | 162
8/30/26 - 1050 62.9 39 37.4 49.8 NNE | 23 2.4 5.7 NNE | 26
8/30/26 - 1045 62.4 39 37.2 49.5 NNE | 22 2.1 7.6 NNE | 28
8/30/26 - 1040 64.3 39 39.0 51.0 E | 86 1.3 9.2 ESE | 115
8/30/26 - 1035 63.1 39 38.1 50.2 NNE | 25 1.0 3.7 NNE | 15
8/30/26 - 1030 63.7 40 38.8 50.7 ENE | 68 0.9 6.3 E | 101
8/30/26 - 1025 63.5 40 38.9 50.6 SSW | 199 0.5 3.2 S | 175
8/30/26 - 1020 63.1 39 37.8 50.0 SE | 125 0.6 4.7 SSE | 155
8/30/26 - 1015 62.0 39 36.7 49.2 NNE | 25 1.8 6.2 N | 0
8/30/26 - 1010 61.6 39 36.5 48.9 NNE | 15 0.9 5.0 NNE | 27
8/30/26 - 1005 61.8 40 36.9 49.2 ESE | 118 0.6 4.0 ENE | 68
8/30/26 - 1000 61.5 39 36.3 48.8 SE | 127 2.3 8.0 ESE | 106
8/30/26 - 0955 62.3 40 37.4 49.6 E | 88 0.9 2.8 ENE | 64
8/30/26 - 0950 61.9 41 37.8 49.6 ENE | 65 0.5 2.2 NNE | 30
8/30/26 - 0945 61.8 41 37.6 49.5 ENE | 60 0.2 1.3 E | 83
8/30/26 - 0940 61.1 40 36.6 48.8 E | 91 0.7 4.0 ESE | 113
8/30/26 - 0935 61.0 41 37.1 48.9 SSE | 157 1.0 3.6 ESE | 116
8/30/26 - 0930 61.0 40 36.8 48.8 SSE | 152 1.1 3.4 SE | 134
8/30/26 - 0925 61.4 40 37.0 49.0 SE | 124 0.5 2.6 ESE | 108
8/30/26 - 0920 60.5 41 36.6 48.6 SSW | 208 0.5 2.5 S | 169
8/30/26 - 0915 60.4 40 36.3 48.4 SE | 133 1.4 4.0 ESE | 112
8/30/26 - 0910 60.0 41 36.2 48.2 SW | 224 2.9 6.3 SW | 230
8/30/26 - 0905 60.3 41 36.4 48.4 WSW | 246 1.1 5.5 W | 280
8/30/26 - 0900 60.0 41 36.1 48.1 SW | 219 1.5 6.1 SW | 216
8/30/26 - 0855 59.5 41 35.8 47.8 SW | 232 2.2 6.2 W | 263
8/30/26 - 0850 59.5 41 35.6 47.7 SSW | 206 2.6 7.6 SSW | 206
8/30/26 - 0845 59.0 41 35.2 47.4 SSW | 199 3.2 11.8 SSW | 195
8/30/26 - 0840 58.9 40 34.8 47.2 S | 182 3.3 9.6 SSE | 147
8/30/26 - 0835 59.0 40 34.7 47.2 ENE | 77 2.0 8.6 ESE | 122
8/30/26 - 0830 58.6 41 34.8 47.1 WSW | 246 0.8 4.4 SSW | 213
8/30/26 - 0825 58.3 41 34.5 46.8 NE | 48 2.0 5.1 NNE | 13
8/30/26 - 0820 58.5 41 35.2 47.2 SSE | 168 1.1 5.3 SW | 228
8/30/26 - 0815 57.8 41 34.4 46.6 E | 93 1.5 7.5 E | 88
8/30/26 - 0810 57.4 41 33.6 46.1 ESE | 123 3.5 8.9 SSE | 163
8/30/26 - 0805 56.8 40 32.8 45.5 N | 6 2.1 7.2 NNW | 329
8/30/26 - 0800 56.0 39 31.7 44.8 NE | 46 1.2 4.0 NE | 37
8/30/26 - 0755 55.6 39 31.1 44.4 NNE | 19 2.3 5.3 NE | 34
8/30/26 - 0750 54.6 40 31.0 43.9 NNE | 18 1.8 7.9 NNE | 18
8/30/26 - 0745 53.5 41 30.6 43.3 ENE | 75 0.2 2.2 NNW | 347
8/30/26 - 0740 53.4 41 30.2 43.1 NNE | 21 0.2 2.2 N | 4
8/30/26 - 0735 52.0 41 29.0 42.0 SE | 128 1.0 2.3 ESE | 112
8/30/26 - 0730 51.5 41 28.3 41.5 ESE | 110 1.5 2.5 ESE | 115
8/30/26 - 0725 52.2 42 30.0 42.4 W | 271 0.4 2.6 NNW | 331
8/30/26 - 0720 52.0 42 29.5 42.2 NNW | 329 2.6 5.7 WNW | 295
8/30/26 - 0715 50.8 41 27.8 41.0 NNE | 14 1.7 5.0 NNE | 13
8/30/26 - 0710 49.5 42 27.2 40.2 NNW | 340 0.4 2.5 N | 0
8/30/26 - 0705 49.8 42 27.6 40.5 N | 350 0.7 2.3 NNE | 15
8/30/26 - 0700 49.4 42 27.3 40.2 NW | 318 0.2 1.9 NNW | 331
8/30/26 - 0655 51.1 42 28.9 41.6 N | 6 0.1 1.8 WNW | 297
8/30/26 - 0650 51.0 43 29.4 41.7 ESE | 119 1.0 5.2 N | 6
8/30/26 - 0645 52.8 43 30.8 43.0 NW | 321 4.0 9.3 NNW | 330
8/30/26 - 0640 54.9 42 32.5 44.6 S | 185 4.1 13.7 S | 186
8/30/26 - 0635 54.6 43 32.5 44.5 SW | 234 5.3 14.2 SW | 214
8/30/26 - 0630 54.7 43 32.4 44.5 SW | 231 4.3 11.8 SW | 231
8/30/26 - 0625 54.9 43 32.6 44.6 SSW | 206 4.5 12.5 S | 189
8/30/26 - 0620 54.3 42 31.8 44.0 SSW | 198 3.2 9.4 SSE | 155
8/30/26 - 0615 53.5 42 31.2 43.5 SW | 229 3.6 11.2 S | 185
8/30/26 - 0610 52.3 41 29.5 42.3 N | 349 2.1 5.9 NNE | 15
8/30/26 - 0605 52.4 41 29.4 42.3 N | 10 1.3 6.3 NE | 39
8/30/26 - 0600 50.4 42 28.1 41.0 NNW | 348 2.4 6.0 NNE | 17
8/30/26 - 0555 52.2 41 29.4 42.2 N | 359 1.8 5.9 N | 7
8/30/26 - 0550 52.4 41 29.2 42.3 N | 349 1.4 4.5 NE | 38
8/30/26 - 0545 52.3 40 28.6 42.0 NNE | 31 3.4 7.1 NE | 37
8/30/26 - 0540 52.3 39 28.4 42.0 NNE | 15 1.3 4.7 NE | 42
8/30/26 - 0535 51.1 38 26.7 40.9 NNE | 30 3.0 8.6 NE | 47
8/30/26 - 0530 49.7 39 25.5 39.8 NE | 36 1.5 6.5 NNE | 27
8/30/26 - 0525 49.8 39 25.6 39.9 NNE | 28 1.9 8.8 E | 80
8/30/26 - 0520 49.1 38 24.9 39.3 NNE | 24 1.3 3.9 NNE | 20
8/30/26 - 0515 48.2 40 24.8 38.8 N | 359 0.7 4.0 NNE | 16
8/30/26 - 0510 47.8 40 24.7 38.6 S | 190 1.3 5.7 NE | 49
8/30/26 - 0505 47.6 39 23.8 38.2 N | 0 0.0 0.0 W | 264
8/30/26 - 0500 48.0 40 25.1 38.8 SE | 128 1.4 3.9 ESE | 112
8/30/26 - 0455 47.6 40 24.6 38.4 NE | 35 0.6 3.1 E | 88
8/30/26 - 0450 48.3 40 25.0 38.9 NNE | 17 0.5 2.2 NE | 39
8/30/26 - 0445 49.0 40 25.7 39.5 N | 352 1.0 3.8 ENE | 75
8/30/26 - 0440 49.6 39 25.7 39.8 NNE | 18 0.9 3.3 NE | 38
8/30/26 - 0435 50.9 39 27.0 40.8 ESE | 108 1.3 7.3 E | 85
8/30/26 - 0430 50.4 40 27.0 40.6 SE | 136 2.3 8.4 NE | 36
8/30/26 - 0425 49.1 39 25.4 39.5 SE | 139 1.3 5.4 SSW | 193
8/30/26 - 0420 50.6 40 27.0 40.7 NW | 304 0.3 1.5 NE | 45
8/30/26 - 0415 50.8 39 26.9 40.8 NNW | 345 2.5 6.5 N | 11
8/30/26 - 0410 51.0 40 27.5 41.1 NNW | 332 1.4 4.3 NNE | 15
8/30/26 - 0405 53.0 39 29.0 42.5 NNE | 27 2.2 10.3 SE | 142
8/30/26 - 0400 53.6 40 29.8 43.0 SW | 214 2.1 13.0 SW | 224
8/30/26 - 0355 53.7 39 29.6 43.0 S | 179 2.2 12.4 SW | 228
8/30/26 - 0350 54.2 39 30.0 43.4 SSW | 199 2.7 12.9 SSW | 195
8/30/26 - 0345 53.6 40 29.7 43.0 WNW | 290 2.3 9.8 SSW | 193
8/30/26 - 0340 53.8 40 30.2 43.3 WSW | 251 3.4 9.2 SW | 230
8/30/26 - 0335 53.4 39 28.8 42.6 ENE | 58 1.2 5.2 N | 350
8/30/26 - 0330 53.9 39 29.4 43.1 S | 181 3.6 10.5 SE | 141
8/30/26 - 0325 54.2 39 30.0 43.4 SSW | 212 4.8 10.9 SW | 234
8/30/26 - 0320 53.4 40 29.6 42.8 SW | 234 2.0 7.7 WSW | 251
8/30/26 - 0315 54.0 40 30.5 43.4 WSW | 251 1.0 4.8 W | 260
8/30/26 - 0310 54.8 41 31.4 44.1 SSW | 206 4.4 10.8 S | 182
8/30/26 - 0305 55.6 40 32.0 44.7 SSW | 204 6.2 14.1 S | 185
8/30/26 - 0300 54.8 40 30.8 43.9 SSW | 196 4.2 10.9 SSW | 193
8/30/26 - 0255 54.4 40 30.8 43.8 SW | 221 3.6 10.9 WSW | 241
8/30/26 - 0250 54.3 41 31.0 43.8 SSW | 208 3.7 13.2 SW | 214
8/30/26 - 0245 54.8 40 31.1 44.0 SSW | 213 4.8 11.7 SW | 229
8/30/26 - 0240 55.0 40 31.2 44.2 SSW | 206 5.6 11.9 SSW | 212
8/30/26 - 0235 54.4 40 30.6 43.7 SSW | 192 2.7 11.6 WSW | 254
8/30/26 - 0230 54.1 39 29.8 43.3 S | 189 3.8 10.5 S | 171
8/30/26 - 0225 54.3 38 29.4 43.2 SSW | 193 3.5 12.6 S | 186
8/30/26 - 0220 54.2 39 29.9 43.4 SSW | 212 2.4 9.3 S | 173
8/30/26 - 0215 54.3 39 30.0 43.4 S | 182 4.9 15.7 S | 182
8/30/26 - 0210 54.3 39 29.9 43.4 SSW | 205 3.3 10.9 SSW | 198
8/30/26 - 0205 53.8 39 29.2 43.0 SSW | 203 3.2 10.0 SSW | 194
8/30/26 - 0200 52.8 38 27.9 42.0 SSW | 204 2.5 8.6 SW | 220
8/30/26 - 0155 51.8 38 26.8 41.2 SSW | 205 2.9 11.0 SW | 234
8/30/26 - 0150 46.4 37 21.3 36.9 ENE | 69 0.9 7.6 SSE | 149
8/30/26 - 0145 45.6 37 20.9 36.4 N | 8 0.3 2.1 NNE | 16
8/30/26 - 0140 45.6 37 20.8 36.3 NNW | 330 0.2 1.8 N | 6
8/30/26 - 0135 44.6 37 20.0 35.6 ESE | 117 0.0 0.8 ENE | 71
8/30/26 - 0130 45.0 37 20.0 35.8 S | 184 0.2 1.1 S | 174
8/30/26 - 0125 45.4 36 19.9 36.0 SSW | 213 0.0 0.7 SW | 214
8/30/26 - 0120 46.2 38 21.8 36.9 SW | 222 0.0 0.5 SW | 219
8/30/26 - 0115 47.0 38 22.7 37.6 SW | 229 0.3 2.0 SSW | 200
8/30/26 - 0110 47.0 38 22.8 37.6 WSW | 242 0.9 3.6 W | 272
8/30/26 - 0105 47.0 38 22.5 37.5 SW | 220 1.6 4.9 SSW | 199
8/30/26 - 0100 47.0 38 22.5 37.6 SW | 216 0.5 2.8 SSW | 209
8/30/26 - 0055 47.1 37 22.5 37.6 SW | 232 0.8 2.7 SW | 234
8/30/26 - 0050 47.1 37 22.0 37.5 SW | 214 0.0 0.4 SW | 214
8/30/26 - 0045 48.2 37 23.2 38.4 SSW | 211 1.0 3.2 SW | 218
8/30/26 - 0040 47.2 37 22.1 37.6 S | 190 1.0 6.2 S | 185
8/30/26 - 0035 47.5 37 22.4 37.8 E | 80 0.1 1.1 E | 94
8/30/26 - 0030 48.2 38 23.5 38.4 NNW | 337 0.0 0.2 NNW | 337
8/30/26 - 0025 48.9 38 24.5 39.1 SSW | 196 0.1 1.8 S | 188
8/30/26 - 0020 49.9 38 25.0 39.7 NW | 312 0.2 2.2 NNW | 340
8/30/26 - 0015 50.4 37 25.1 40.0 ESE | 119 0.4 2.4 E | 96
8/30/26 - 0010 51.2 37 25.8 40.6 NNW | 327 0.3 1.8 SE | 145
8/30/26 - 0005 52.6 36 26.7 41.6 SSE | 168 0.5 2.7 E | 88
8/30/26 - 0000 52.1 36 26.1 41.1 SE | 137 1.1 3.7 ENE | 78
8/29/26 - 2355 50.7 37 25.3 40.2 SSE | 157 0.6 2.9 SSE | 152
8/29/26 - 2350 51.5 37 25.8 40.8 SSW | 197 0.6 2.9 SSW | 201
8/29/26 - 2345 53.1 36 27.2 42.0 S | 190 1.8 7.3 SSW | 201
8/29/26 - 2340 49.8 37 24.7 39.6 S | 171 0.1 1.2 SSE | 160
8/29/26 - 2335 50.3 36 24.7 39.8 SSE | 164 0.1 1.3 S | 175
8/29/26 - 2330 50.8 35 24.3 40.0 S | 180 0.4 2.6 S | 170
8/29/26 - 2325 51.8 36 25.7 40.9 SSW | 210 0.4 1.9 SSE | 163
8/29/26 - 2320 51.6 36 25.8 40.8 SSE | 156 0.2 1.9 SSE | 160
8/29/26 - 2315 51.7 36 25.4 40.8 S | 190 0.5 2.5 SSW | 203
8/29/26 - 2310 52.2 35 25.7 41.1 S | 176 0.1 1.1 S | 187
Max 68.6 43 41.4 53.4 - 7.9 18.7 -
Avg 58.6 37 32.3 46.1 - 2.4 7.7 -
Min 44.6 31 19.9 35.6 - 0.0 0.0 -